GABG weather

Bougouni Airport
Bougouni, Sikasso Region, Mali

Public forecast

Using degrees Celsius for public forecast. Weather courtesy of forecast.io.

METAR (pilot weather report)

Report is more than 6 hours old.

Retrieved 2017/03/31 06:00 UTC (2 years ago):

GABG 310600Z 00000KT CAVOK 28/19 Q////

TAF (pilot weather forecast)

Closest forecast is Modibo Keita International Airport, 69.8 nm (129.4 km) NNW. Retrieved 2019/03/19 18:55 UTC (0 seconds ago):

TAF GABS 191700Z 1918/2024 20008KT CAVOK